PWSweather.com
Personal Weather Stations
Station Observations
THAIWX
Pa Daet, Chiang MaiTH 50100

Pa DaetChiang MaiTH 50100

Lat: 18.766158, Lon: 98.97553

Elevation: 1007

Station Type: LaCrosse WS2315 (modified)

http://www.ThaiWx.yolasite.com/

Latest ConditionsUpdated 9:35:41 PM GMT+07:07 Tuesday, Jul 23, 2019
Currently Today's Max Today's Min Today's Average
Temperature 76.6°F24.8°C 86.2°F30.1°C 76.5°F24.7°C 80.0°F26.7°C
Dew Point 74.8°F23.8°C 77.8°F25.4°C 71.0°F21.7°C 74.1°F23.4°C
Winds Calm Calm 4.3 mph -6.9 kmh - - 0.1 mph 0.2 kmh
Wind Gusts -- 4.7 mph7.6 kmh - -
Humidity 94% 95% 68% 83%
Pressure 29.81 in1009.5 mb 29.85 in1010.8 mb 29.73 in1006.8 mb -
Precipitation - 0.25 in6.4 mm - -
Hour Temp Dew Point Humidity Winds Wind Gusts Pressure Precip Precip Rate Daily Precip Total
09:35 PM 76.6°F24.8°C 74.8°F23.8°C 94% Calm Calm -- 29.81 in1009.5 mb 0.00 in0.0 mm 0.00 in0.0 mm 0.25 in6.4 mm
09:29 PM 76.6°F24.8°C 75.1°F23.9°C 95% Calm Calm -- 29.81 in1009.5 mb 0.00 in0.0 mm 0.00 in0.0 mm 0.25 in6.4 mm
09:25 PM 76.6°F24.8°C 75.1°F23.9°C 95% Calm Calm -- 29.81 in1009.5 mb 0.00 in0.0 mm 0.00 in0.0 mm 0.25 in6.4 mm
09:18 PM 76.6°F24.8°C 75.1°F23.9°C 95% Calm Calm 1.1 mph1.8 kmh 29.81 in1009.5 mb 0.00 in0.0 mm 0.00 in0.0 mm 0.25 in6.4 mm
09:14 PM 76.8°F24.9°C 75.3°F24.1°C 95% Calm Calm 1.1 mph1.8 kmh 29.81 in1009.5 mb 0.00 in0.0 mm 0.00 in0.0 mm 0.25 in6.4 mm
09:10 PM 76.8°F24.9°C 75.3°F24.1°C 95% 1.1 mph ENE1.8 kmh ENE 1.1 mph1.8 kmh 29.81 in1009.5 mb 0.00 in0.0 mm 0.00 in0.0 mm 0.25 in6.4 mm
09:03 PM 76.6°F24.8°C 74.8°F23.8°C 94% Calm Calm -- 29.81 in1009.5 mb 0.00 in0.0 mm 0.00 in0.0 mm 0.25 in6.4 mm
08:59 PM 76.6°F24.8°C 74.8°F23.8°C 94% Calm Calm -- 29.80 in1009.1 mb 0.00 in0.0 mm 0.00 in0.0 mm 0.25 in6.4 mm
08:52 PM 76.6°F24.8°C 74.8°F23.8°C 94% Calm Calm -- 29.80 in1009.1 mb 0.00 in0.0 mm 0.00 in0.0 mm 0.25 in6.4 mm
08:48 PM 76.6°F24.8°C 74.8°F23.8°C 94% Calm Calm -- 29.80 in1009.1 mb 0.00 in0.0 mm 0.00 in0.0 mm 0.25 in6.4 mm
08:42 PM 76.6°F24.8°C 74.8°F23.8°C 94% Calm Calm -- 29.80 in1009.1 mb 0.00 in0.0 mm 0.00 in0.0 mm 0.25 in6.4 mm
08:35 PM 76.6°F24.8°C 74.8°F23.8°C 94% Calm Calm -- 29.80 in1009.1 mb 0.00 in0.0 mm 0.00 in0.0 mm 0.25 in6.4 mm
08:31 PM 76.6°F24.8°C 74.8°F23.8°C 94% Calm Calm -- 29.80 in1009.1 mb 0.00 in0.0 mm 0.00 in0.0 mm 0.25 in6.4 mm
08:27 PM 76.6°F24.8°C 74.8°F23.8°C 94% Calm Calm -- 29.79 in1008.8 mb 0.00 in0.0 mm 0.00 in0.0 mm 0.25 in6.4 mm
08:20 PM 76.6°F24.8°C 74.8°F23.8°C 94% Calm Calm -- 29.79 in1008.8 mb 0.00 in0.0 mm 0.00 in0.0 mm 0.25 in6.4 mm
08:16 PM 76.5°F24.7°C 74.6°F23.7°C 94% Calm Calm -- 29.79 in1008.8 mb 0.00 in0.0 mm 0.00 in0.0 mm 0.25 in6.4 mm
08:10 PM 76.5°F24.7°C 74.6°F23.7°C 94% Calm Calm -- 29.79 in1008.8 mb 0.00 in0.0 mm 0.00 in0.0 mm 0.25 in6.4 mm
08:05 PM 76.6°F24.8°C 75.1°F23.9°C 94% Calm Calm -- 29.78 in1008.5 mb 0.00 in0.0 mm 0.00 in0.0 mm 0.25 in6.4 mm
08:01 PM 76.6°F24.8°C 75.1°F23.9°C 95% Calm Calm -- 29.78 in1008.5 mb 0.00 in0.0 mm 0.00 in0.0 mm 0.25 in6.4 mm
07:55 PM 76.6°F24.8°C 75.1°F23.9°C 95% Calm Calm -- 29.78 in1008.5 mb 0.00 in0.0 mm 0.00 in0.0 mm 0.25 in6.4 mm
07:50 PM 76.5°F24.7°C 75.1°F23.9°C 95% Calm Calm -- 29.78 in1008.5 mb 0.00 in0.0 mm 0.00 in0.0 mm 0.25 in6.4 mm
07:44 PM 76.5°F24.7°C 74.9°F23.8°C 95% Calm Calm -- 29.78 in1008.5 mb 0.00 in0.0 mm 0.00 in0.0 mm 0.25 in6.4 mm
07:40 PM 76.5°F24.7°C 74.9°F23.8°C 95% Calm Calm -- 29.77 in1008.1 mb 0.00 in0.0 mm 0.00 in0.0 mm 0.25 in6.4 mm
07:35 PM 76.6°F24.8°C 75.1°F23.9°C 95% Calm Calm -- 29.77 in1008.1 mb 0.00 in0.0 mm 0.00 in0.0 mm 0.25 in6.4 mm
07:29 PM 76.6°F24.8°C 75.1°F23.9°C 95% Calm Calm -- 29.77 in1008.1 mb 0.00 in0.0 mm 0.00 in0.0 mm 0.25 in6.4 mm
07:25 PM 76.6°F24.8°C 75.1°F23.9°C 95% Calm Calm -- 29.76 in1007.8 mb 0.00 in0.0 mm 0.00 in0.0 mm 0.25 in6.4 mm
07:18 PM 76.6°F24.8°C 75.1°F23.9°C 95% Calm Calm -- 29.76 in1007.8 mb 0.00 in0.0 mm 0.00 in0.0 mm 0.25 in6.4 mm
07:14 PM 76.6°F24.8°C 75.1°F23.9°C 95% Calm Calm -- 29.76 in1007.8 mb 0.00 in0.0 mm 0.00 in0.0 mm 0.25 in6.4 mm
07:10 PM 76.6°F24.8°C 75.1°F23.9°C 95% Calm Calm -- 29.76 in1007.8 mb 0.00 in0.0 mm 0.00 in0.0 mm 0.25 in6.4 mm
07:03 PM 76.6°F24.8°C 74.8°F23.8°C 94% Calm Calm -- 29.76 in1007.8 mb 0.00 in0.0 mm 0.00 in0.0 mm 0.25 in6.4 mm
06:59 PM 76.6°F24.8°C 74.8°F23.8°C 94% Calm Calm -- 29.76 in1007.8 mb 0.00 in0.0 mm 0.00 in0.0 mm 0.25 in6.4 mm
06:55 PM 76.6°F24.8°C 74.8°F23.8°C 94% Calm Calm -- 29.76 in1007.8 mb 0.00 in0.0 mm 0.00 in0.0 mm 0.25 in6.4 mm
06:48 PM 76.6°F24.8°C 74.8°F23.8°C 94% Calm Calm -- 29.76 in1007.8 mb 0.00 in0.0 mm 0.00 in0.0 mm 0.25 in6.4 mm
06:44 PM 76.6°F24.8°C 74.8°F23.8°C 94% Calm Calm -- 29.76 in1007.8 mb 0.00 in0.0 mm 0.00 in0.0 mm 0.25 in6.4 mm
06:40 PM 76.6°F24.8°C 74.8°F23.8°C 94% Calm Calm -- 29.76 in1007.8 mb 0.00 in0.0 mm 0.00 in0.0 mm 0.25 in6.4 mm
06:33 PM 76.6°F24.8°C 75.0°F23.9°C 94% Calm Calm -- 29.76 in1007.8 mb 0.00 in0.0 mm 0.00 in0.0 mm 0.25 in6.4 mm
06:27 PM 76.8°F24.9°C 75.0°F23.9°C 94% Calm Calm -- 29.75 in1007.5 mb 0.00 in0.0 mm 0.00 in0.0 mm 0.25 in6.4 mm
06:22 PM 76.8°F24.9°C 75.0°F23.9°C 94% Calm Calm -- 29.75 in1007.5 mb 0.00 in0.0 mm 0.00 in0.0 mm 0.25 in6.4 mm
06:16 PM 76.8°F24.9°C 75.0°F23.9°C 94% Calm Calm -- 29.75 in1007.5 mb 0.00 in0.0 mm 0.00 in0.0 mm 0.25 in6.4 mm
06:12 PM 76.8°F24.9°C 75.0°F23.9°C 94% Calm Calm 0.9 mph1.4 kmh 29.75 in1007.5 mb 0.00 in0.0 mm 0.00 in0.0 mm 0.25 in6.4 mm
06:03 PM 76.8°F24.9°C 74.7°F23.7°C 93% 0.9 mph 1.4 kmh 0.9 mph1.4 kmh 29.75 in1007.5 mb 0.00 in0.0 mm 0.00 in0.0 mm 0.25 in6.4 mm
05:59 PM 76.8°F24.9°C 74.7°F23.7°C 93% Calm Calm -- 29.75 in1007.5 mb 0.00 in0.0 mm 0.00 in0.0 mm 0.25 in6.4 mm
05:55 PM 76.8°F24.9°C 74.7°F23.7°C 93% Calm Calm -- 29.75 in1007.5 mb 0.00 in0.0 mm 0.00 in0.0 mm 0.25 in6.4 mm
05:48 PM 76.8°F24.9°C 74.7°F23.7°C 93% Calm Calm -- 29.75 in1007.5 mb 0.00 in0.0 mm 0.00 in0.0 mm 0.25 in6.4 mm
05:44 PM 76.8°F24.9°C 74.7°F23.7°C 93% Calm Calm -- 29.75 in1007.5 mb 0.00 in0.0 mm 0.00 in0.0 mm 0.25 in6.4 mm
05:40 PM 76.8°F24.9°C 74.7°F23.7°C 93% Calm Calm -- 29.74 in1007.1 mb 0.00 in0.0 mm 0.00 in0.0 mm 0.25 in6.4 mm
05:33 PM 76.8°F24.9°C 74.7°F23.7°C 93% Calm Calm -- 29.75 in1007.5 mb 0.00 in0.0 mm 0.00 in0.0 mm 0.25 in6.4 mm
05:29 PM 76.8°F24.9°C 74.4°F23.6°C 93% Calm Calm -- 29.74 in1007.1 mb 0.02 in0.5 mm 0.00 in0.0 mm 0.25 in6.4 mm
05:23 PM 76.8°F24.9°C 74.4°F23.6°C 92% Calm Calm -- 29.74 in1007.1 mb 0.04 in1.0 mm 0.00 in0.0 mm 0.25 in6.4 mm
05:18 PM 76.8°F24.9°C 74.4°F23.6°C 92% Calm Calm 1.3 mph2.1 kmh 29.74 in1007.1 mb 0.04 in1.0 mm 0.00 in0.0 mm 0.25 in6.4 mm
05:14 PM 76.8°F24.9°C 74.4°F23.6°C 92% Calm Calm 1.3 mph2.1 kmh 29.74 in1007.1 mb 0.04 in1.0 mm 0.00 in0.0 mm 0.25 in6.4 mm
05:08 PM 77.0°F25.0°C 74.2°F23.4°C 91% 1.3 mph NE2.1 kmh NE 1.3 mph2.1 kmh 29.74 in1007.1 mb 0.04 in1.0 mm 0.00 in0.0 mm 0.25 in6.4 mm
05:03 PM 77.0°F25.0°C 74.2°F23.4°C 91% Calm Calm -- 29.74 in1007.1 mb 0.06 in1.5 mm 0.00 in0.0 mm 0.25 in6.4 mm
04:59 PM 77.0°F25.0°C 73.9°F23.3°C 90% Calm Calm -- 29.74 in1007.1 mb 0.16 in4.1 mm 0.00 in0.0 mm 0.25 in6.4 mm
04:53 PM 77.2°F25.1°C 74.1°F23.4°C 90% Calm Calm -- 29.74 in1007.1 mb 0.20 in5.1 mm 0.00 in0.0 mm 0.25 in6.4 mm
04:48 PM 77.4°F25.2°C 73.9°F23.3°C 89% Calm Calm -- 29.74 in1007.1 mb 0.20 in5.1 mm 0.00 in0.0 mm 0.25 in6.4 mm
04:42 PM 77.7°F25.4°C 74.3°F23.5°C 89% Calm Calm -- 29.74 in1007.1 mb 0.20 in5.1 mm 0.00 in0.0 mm 0.25 in6.4 mm
04:38 PM 78.1°F25.6°C 74.3°F23.5°C 88% Calm Calm -- 29.73 in1006.8 mb 0.20 in5.1 mm 0.00 in0.0 mm 0.25 in6.4 mm
04:33 PM 78.4°F25.8°C 74.7°F23.7°C 88% Calm Calm -- 29.73 in1006.8 mb 0.20 in5.1 mm 0.20 in5.1 mm 0.23 in5.8 mm
04:27 PM 79.0°F26.1°C 74.5°F23.6°C 86% Calm Calm -- 29.73 in1006.8 mb 0.18 in4.6 mm 0.30 in7.6 mm 0.23 in5.8 mm
04:23 PM 79.3°F26.3°C 74.4°F23.6°C 85% Calm Calm -- 29.73 in1006.8 mb 0.16 in4.1 mm 0.00 in0.0 mm 0.21 in5.3 mm
04:18 PM 79.5°F26.4°C 75.0°F23.9°C 84% Calm Calm -- 29.73 in1006.8 mb 0.16 in4.1 mm 0.00 in0.0 mm 0.21 in5.3 mm
04:12 PM 80.6°F27.0°C 75.3°F24.1°C 84% Calm Calm -- 29.73 in1006.8 mb 0.16 in4.1 mm 0.30 in7.6 mm 0.21 in5.3 mm
04:08 PM 81.1°F27.3°C 75.5°F24.2°C 83% Calm Calm -- 29.74 in1007.1 mb 0.14 in3.6 mm 0.48 in12.2 mm 0.15 in3.8 mm
04:03 PM 82.0°F27.8°C 75.7°F24.3°C 81% Calm Calm -- 29.75 in1007.5 mb 0.10 in2.5 mm 0.11 in2.8 mm 0.06 in1.5 mm
03:56 PM 82.8°F28.2°C 76.1°F24.5°C 80% Calm Calm 4.3 mph6.9 kmh 29.74 in1007.1 mb 0.00 in0.0 mm 0.00 in0.0 mm 0.04 in1.0 mm
03:52 PM 82.9°F28.3°C 76.6°F24.8°C 81% 4.3 mph NNE6.9 kmh NNE 4.3 mph6.9 kmh 29.74 in1007.1 mb 0.00 in0.0 mm 0.00 in0.0 mm 0.04 in1.0 mm
03:45 PM 83.1°F28.4°C 76.9°F24.9°C 81% Calm Calm -- 29.74 in1007.1 mb 0.00 in0.0 mm 0.00 in0.0 mm 0.04 in1.0 mm
03:41 PM 83.5°F28.6°C 77.1°F25.1°C 81% Calm Calm 0.9 mph1.4 kmh 29.75 in1007.5 mb 0.00 in0.0 mm 0.00 in0.0 mm 0.04 in1.0 mm
03:35 PM 84.0°F28.9°C 77.2°F25.1°C 80% Calm Calm 0.9 mph1.4 kmh 29.73 in1006.8 mb 0.00 in0.0 mm 0.00 in0.0 mm 0.04 in1.0 mm
03:30 PM 84.2°F29.0°C 77.1°F25.1°C 80% 0.9 mph ENE1.4 kmh ENE 4.5 mph7.2 kmh 29.74 in1007.1 mb 0.00 in0.0 mm 0.00 in0.0 mm 0.04 in1.0 mm
03:26 PM 84.6°F29.2°C 77.3°F25.2°C 79% 0.9 mph ENE1.4 kmh ENE 4.5 mph7.2 kmh 29.74 in1007.1 mb 0.00 in0.0 mm 0.00 in0.0 mm 0.04 in1.0 mm
03:20 PM 84.9°F29.4°C 76.9°F24.9°C 77% 0.7 mph NNE1.1 kmh NNE 0.9 mph1.4 kmh 29.74 in1007.1 mb 0.00 in0.0 mm 0.00 in0.0 mm 0.04 in1.0 mm
03:16 PM 84.9°F29.4°C 76.5°F24.7°C 76% 0.9 mph NNE1.4 kmh NNE 0.9 mph1.4 kmh 29.74 in1007.1 mb 0.00 in0.0 mm 0.00 in0.0 mm 0.04 in1.0 mm
03:11 PM 84.9°F29.4°C 76.1°F24.5°C 76% Calm Calm -- 29.74 in1007.1 mb 0.00 in0.0 mm 0.00 in0.0 mm 0.04 in1.0 mm
03:05 PM 84.9°F29.4°C 76.5°F24.7°C 76% Calm Calm -- 29.74 in1007.1 mb 0.00 in0.0 mm 0.00 in0.0 mm 0.04 in1.0 mm
03:01 PM 84.9°F29.4°C 76.5°F24.7°C 76% Calm Calm -- 29.74 in1007.1 mb 0.00 in0.0 mm 0.00 in0.0 mm 0.04 in1.0 mm
02:54 PM 84.9°F29.4°C 76.9°F24.9°C 76% Calm Calm -- 29.74 in1007.1 mb 0.00 in0.0 mm 0.00 in0.0 mm 0.04 in1.0 mm
02:50 PM 84.9°F29.4°C 76.9°F24.9°C 77% Calm Calm -- 29.74 in1007.1 mb 0.00 in0.0 mm 0.00 in0.0 mm 0.04 in1.0 mm
02:46 PM 85.1°F29.5°C 77.1°F25.1°C 77% Calm Calm -- 29.74 in1007.1 mb 0.00 in0.0 mm 0.00 in0.0 mm 0.04 in1.0 mm
02:39 PM 85.1°F29.5°C 77.1°F25.1°C 77% Calm Calm -- 29.74 in1007.1 mb 0.00 in0.0 mm 0.00 in0.0 mm 0.04 in1.0 mm
02:35 PM 84.9°F29.4°C 76.9°F24.9°C 77% Calm Calm -- 29.74 in1007.1 mb 0.00 in0.0 mm 0.00 in0.0 mm 0.04 in1.0 mm
02:28 PM 85.3°F29.6°C 77.3°F25.2°C 77% Calm Calm -- 29.74 in1007.1 mb 0.00 in0.0 mm 0.00 in0.0 mm 0.04 in1.0 mm
02:24 PM 85.5°F29.7°C 77.8°F25.4°C 78% Calm Calm -- 29.74 in1007.1 mb 0.00 in0.0 mm 0.00 in0.0 mm 0.04 in1.0 mm
02:18 PM 85.6°F29.8°C 77.6°F25.3°C 77% Calm Calm -- 29.75 in1007.5 mb 0.00 in0.0 mm 0.00 in0.0 mm 0.04 in1.0 mm
02:13 PM 85.8°F29.9°C 77.4°F25.2°C 76% Calm Calm -- 29.75 in1007.5 mb 0.00 in0.0 mm 0.00 in0.0 mm 0.04 in1.0 mm
02:07 PM 85.8°F29.9°C 76.6°F24.8°C 74% Calm Calm -- 29.75 in1007.5 mb 0.00 in0.0 mm 0.00 in0.0 mm 0.04 in1.0 mm
02:03 PM 86.2°F30.1°C 76.9°F24.9°C 74% Calm Calm -- 29.75 in1007.5 mb 0.00 in0.0 mm 0.00 in0.0 mm 0.04 in1.0 mm
01:56 PM 86.2°F30.1°C 76.6°F24.8°C 73% Calm Calm -- 29.75 in1007.5 mb 0.00 in0.0 mm 0.00 in0.0 mm 0.04 in1.0 mm
01:50 PM 86.0°F30.0°C 76.8°F24.9°C 74% Calm Calm -- 29.75 in1007.5 mb 0.00 in0.0 mm 0.00 in0.0 mm 0.04 in1.0 mm
01:46 PM 85.8°F29.9°C 76.2°F24.6°C 74% Calm Calm -- 29.75 in1007.5 mb 0.00 in0.0 mm 0.00 in0.0 mm 0.04 in1.0 mm
01:41 PM 85.8°F29.9°C 76.6°F24.8°C 74% Calm Calm -- 29.75 in1007.5 mb 0.00 in0.0 mm 0.00 in0.0 mm 0.04 in1.0 mm
01:35 PM 85.3°F29.6°C 76.5°F24.7°C 75% Calm Calm -- 29.75 in1007.5 mb 0.00 in0.0 mm 0.00 in0.0 mm 0.04 in1.0 mm
01:28 PM 85.1°F29.5°C 76.7°F24.8°C 76% Calm Calm 2.0 mph3.2 kmh 29.76 in1007.8 mb 0.00 in0.0 mm 0.00 in0.0 mm 0.04 in1.0 mm
01:24 PM 84.9°F29.4°C 76.9°F24.9°C 77% Calm Calm 2.0 mph3.2 kmh 29.76 in1007.8 mb 0.00 in0.0 mm 0.00 in0.0 mm 0.04 in1.0 mm
01:20 PM 84.9°F29.4°C 76.9°F24.9°C 77% 2.0 mph NNE3.2 kmh NNE 2.0 mph3.2 kmh 29.76 in1007.8 mb 0.00 in0.0 mm 0.00 in0.0 mm 0.04 in1.0 mm
01:13 PM 84.7°F29.3°C 76.7°F24.8°C 77% Calm Calm 2.5 mph4.0 kmh 29.77 in1008.1 mb 0.00 in0.0 mm 0.00 in0.0 mm 0.04 in1.0 mm
01:09 PM 84.7°F29.3°C 77.1°F25.1°C 78% 2.5 mph ESE4.0 kmh ESE 4.7 mph7.6 kmh 29.77 in1008.1 mb 0.00 in0.0 mm 0.00 in0.0 mm 0.04 in1.0 mm
01:05 PM 84.6°F29.2°C 76.9°F24.9°C 78% Calm Calm 4.7 mph7.6 kmh 29.77 in1008.1 mb 0.00 in0.0 mm 0.00 in0.0 mm 0.04 in1.0 mm
12:58 PM 84.4°F29.1°C 77.1°F25.1°C 79% Calm Calm 3.4 mph5.5 kmh 29.77 in1008.1 mb 0.00 in0.0 mm 0.00 in0.0 mm 0.04 in1.0 mm
12:52 PM 84.0°F28.9°C 76.8°F24.9°C 79% 3.4 mph ESE5.5 kmh ESE 3.4 mph5.5 kmh 29.78 in1008.5 mb 0.00 in0.0 mm 0.00 in0.0 mm 0.04 in1.0 mm
12:48 PM 83.8°F28.8°C 77.0°F25.0°C 80% Calm Calm 2.5 mph4.0 kmh 29.78 in1008.5 mb 0.00 in0.0 mm 0.00 in0.0 mm 0.04 in1.0 mm
12:41 PM 83.5°F28.6°C 77.1°F25.1°C 81% Calm Calm 3.8 mph6.1 kmh 29.78 in1008.5 mb 0.00 in0.0 mm 0.00 in0.0 mm 0.04 in1.0 mm
12:37 PM 83.1°F28.4°C 76.4°F24.7°C 80% Calm Calm 3.8 mph6.1 kmh 29.79 in1008.8 mb 0.00 in0.0 mm 0.00 in0.0 mm 0.04 in1.0 mm
12:29 PM 82.8°F28.2°C 76.7°F24.8°C 82% Calm Calm -- 29.79 in1008.8 mb 0.00 in0.0 mm 0.00 in0.0 mm 0.04 in1.0 mm
12:24 PM 82.4°F28.0°C 76.1°F24.5°C 81% Calm Calm -- 29.79 in1008.8 mb 0.00 in0.0 mm 0.00 in0.0 mm 0.04 in1.0 mm
12:16 PM 82.0°F27.8°C 76.4°F24.7°C 83% Calm Calm -- 29.80 in1009.1 mb 0.00 in0.0 mm 0.00 in0.0 mm 0.04 in1.0 mm
12:11 PM 81.7°F27.6°C 76.4°F24.7°C 84% Calm Calm -- 29.80 in1009.1 mb 0.00 in0.0 mm 0.00 in0.0 mm 0.04 in1.0 mm
12:05 PM 81.3°F27.4°C 76.0°F24.4°C 84% Calm Calm 1.3 mph2.1 kmh 29.80 in1009.1 mb 0.00 in0.0 mm 0.00 in0.0 mm 0.04 in1.0 mm
12:01 PM 81.3°F27.4°C 75.7°F24.3°C 83% Calm Calm 2.5 mph4.0 kmh 29.81 in1009.5 mb 0.00 in0.0 mm 0.00 in0.0 mm 0.04 in1.0 mm
11:54 AM 81.5°F27.5°C 75.9°F24.4°C 83% 1.8 mph SSW2.9 kmh SSW 2.5 mph4.0 kmh 29.81 in1009.5 mb 0.00 in0.0 mm 0.00 in0.0 mm 0.04 in1.0 mm
11:48 AM 81.5°F27.5°C 75.9°F24.4°C 83% Calm Calm -- 29.81 in1009.5 mb 0.00 in0.0 mm 0.00 in0.0 mm 0.04 in1.0 mm
11:44 AM 81.5°F27.5°C 75.9°F24.4°C 83% Calm Calm 0.9 mph1.4 kmh 29.81 in1009.5 mb 0.00 in0.0 mm 0.00 in0.0 mm 0.04 in1.0 mm
11:39 AM 81.5°F27.5°C 76.6°F24.8°C 85% Calm Calm 0.9 mph1.4 kmh 29.82 in1009.8 mb 0.00 in0.0 mm 0.00 in0.0 mm 0.04 in1.0 mm
11:33 AM 81.1°F27.3°C 76.2°F24.6°C 85% Calm Calm -- 29.82 in1009.8 mb 0.00 in0.0 mm 0.00 in0.0 mm 0.04 in1.0 mm
11:28 AM 81.1°F27.3°C 76.2°F24.6°C 85% Calm Calm -- 29.82 in1009.8 mb 0.00 in0.0 mm 0.00 in0.0 mm 0.04 in1.0 mm
11:24 AM 80.8°F27.1°C 76.2°F24.6°C 86% Calm Calm -- 29.82 in1009.8 mb 0.00 in0.0 mm 0.00 in0.0 mm 0.04 in1.0 mm
11:18 AM 80.4°F26.9°C 75.8°F24.3°C 86% Calm Calm -- 29.83 in1010.2 mb 0.00 in0.0 mm 0.00 in0.0 mm 0.04 in1.0 mm
11:13 AM 80.4°F26.9°C 76.0°F24.4°C 87% Calm Calm -- 29.83 in1010.2 mb 0.00 in0.0 mm 0.00 in0.0 mm 0.04 in1.0 mm
11:09 AM 80.2°F26.8°C 76.0°F24.4°C 87% Calm Calm -- 29.83 in1010.2 mb 0.00 in0.0 mm 0.00 in0.0 mm 0.04 in1.0 mm
11:01 AM 79.9°F26.6°C 75.7°F24.3°C 87% Calm Calm 2.0 mph3.2 kmh 29.83 in1010.2 mb 0.00 in0.0 mm 0.00 in0.0 mm 0.04 in1.0 mm
10:56 AM 79.9°F26.6°C 76.0°F24.4°C 88% 2.0 mph SE3.2 kmh SE 2.0 mph3.2 kmh 29.83 in1010.2 mb 0.00 in0.0 mm 0.00 in0.0 mm 0.04 in1.0 mm
10:52 AM 79.7°F26.5°C 75.7°F24.3°C 88% Calm Calm 0.9 mph1.4 kmh 29.83 in1010.2 mb 0.00 in0.0 mm 0.00 in0.0 mm 0.04 in1.0 mm
10:46 AM 79.5°F26.4°C 75.7°F24.3°C 88% Calm Calm -- 29.83 in1010.2 mb 0.00 in0.0 mm 0.00 in0.0 mm 0.04 in1.0 mm
10:41 AM 79.3°F26.3°C 75.3°F24.1°C 88% Calm Calm -- 29.83 in1010.2 mb 0.00 in0.0 mm 0.00 in0.0 mm 0.04 in1.0 mm
10:35 AM 79.2°F26.2°C 75.7°F24.3°C 89% Calm Calm 1.8 mph2.9 kmh 29.83 in1010.2 mb 0.00 in0.0 mm 0.00 in0.0 mm 0.04 in1.0 mm
10:31 AM 79.0°F26.1°C 75.9°F24.4°C 90% Calm Calm 1.8 mph2.9 kmh 29.83 in1010.2 mb 0.00 in0.0 mm 0.00 in0.0 mm 0.04 in1.0 mm
10:24 AM 78.6°F25.9°C 75.6°F24.2°C 90% Calm Calm -- 29.83 in1010.2 mb 0.00 in0.0 mm 0.00 in0.0 mm 0.04 in1.0 mm
10:18 AM 78.4°F25.8°C 75.4°F24.1°C 90% Calm Calm -- 29.83 in1010.2 mb 0.00 in0.0 mm 0.00 in0.0 mm 0.04 in1.0 mm
10:14 AM 78.4°F25.8°C 75.4°F24.1°C 90% Calm Calm -- 29.84 in1010.5 mb 0.00 in0.0 mm 0.00 in0.0 mm 0.04 in1.0 mm
10:07 AM 78.3°F25.7°C 75.2°F24.0°C 90% Calm Calm 1.1 mph1.8 kmh 29.84 in1010.5 mb 0.00 in0.0 mm 0.00 in0.0 mm 0.04 in1.0 mm
10:01 AM 78.1°F25.6°C 75.3°F24.1°C 91% 1.1 mph 1.8 kmh 1.1 mph1.8 kmh 29.85 in1010.8 mb 0.00 in0.0 mm 0.00 in0.0 mm 0.04 in1.0 mm
09:56 AM 78.1°F25.6°C 75.3°F24.1°C 91% Calm Calm 1.1 mph1.8 kmh 29.84 in1010.5 mb 0.00 in0.0 mm 0.00 in0.0 mm 0.04 in1.0 mm
09:52 AM 77.9°F25.5°C 75.1°F23.9°C 91% Calm Calm 1.3 mph2.1 kmh 29.84 in1010.5 mb 0.00 in0.0 mm 0.00 in0.0 mm 0.04 in1.0 mm
09:44 AM 77.5°F25.3°C 74.8°F23.8°C 91% Calm Calm 1.1 mph1.8 kmh 29.84 in1010.5 mb 0.00 in0.0 mm 0.00 in0.0 mm 0.04 in1.0 mm
09:39 AM 77.4°F25.2°C 74.6°F23.7°C 91% Calm Calm 2.0 mph3.2 kmh 29.84 in1010.5 mb 0.00 in0.0 mm 0.00 in0.0 mm 0.04 in1.0 mm
09:35 AM 77.2°F25.1°C 74.4°F23.6°C 91% 1.1 mph 1.8 kmh 2.0 mph3.2 kmh 29.84 in1010.5 mb 0.00 in0.0 mm 0.00 in0.0 mm 0.04 in1.0 mm
09:29 AM 77.2°F25.1°C 74.1°F23.4°C 90% Calm Calm 2.9 mph4.7 kmh 29.84 in1010.5 mb 0.00 in0.0 mm 0.00 in0.0 mm 0.04 in1.0 mm
09:24 AM 77.2°F25.1°C 74.1°F23.4°C 90% Calm Calm 2.9 mph4.7 kmh 29.84 in1010.5 mb 0.00 in0.0 mm 0.00 in0.0 mm 0.04 in1.0 mm
09:18 AM 76.8°F24.9°C 73.8°F23.2°C 90% Calm Calm 2.5 mph4.0 kmh 29.85 in1010.8 mb 0.00 in0.0 mm 0.00 in0.0 mm 0.04 in1.0 mm
09:14 AM 77.0°F25.0°C 73.9°F23.3°C 90% Calm Calm 2.5 mph4.0 kmh 29.85 in1010.8 mb 0.02 in0.5 mm 0.00 in0.0 mm 0.04 in1.0 mm
09:09 AM 77.0°F25.0°C 73.9°F23.3°C 90% 2.5 mph ENE4.0 kmh ENE 2.5 mph4.0 kmh 29.85 in1010.8 mb 0.02 in0.5 mm 0.00 in0.0 mm 0.04 in1.0 mm
09:03 AM 76.8°F24.9°C 73.8°F23.2°C 90% Calm Calm -- 29.84 in1010.5 mb 0.02 in0.5 mm 0.00 in0.0 mm 0.04 in1.0 mm
08:56 AM 76.8°F24.9°C 73.8°F23.2°C 90% Calm Calm 2.9 mph4.7 kmh 29.83 in1010.2 mb 0.04 in1.0 mm 0.00 in0.0 mm 0.04 in1.0 mm
08:52 AM 76.8°F24.9°C 73.8°F23.2°C 90% 0.9 mph 1.4 kmh 2.9 mph4.7 kmh 29.84 in1010.5 mb 0.04 in1.0 mm 0.00 in0.0 mm 0.04 in1.0 mm
08:48 AM 76.8°F24.9°C 73.8°F23.2°C 90% Calm Calm 1.8 mph2.9 kmh 29.83 in1010.2 mb 0.04 in1.0 mm 0.00 in0.0 mm 0.04 in1.0 mm
08:41 AM 76.8°F24.9°C 73.4°F23.0°C 89% 1.8 mph NE2.9 kmh NE 1.8 mph2.9 kmh 29.84 in1010.5 mb 0.04 in1.0 mm 0.00 in0.0 mm 0.04 in1.0 mm
08:37 AM 76.8°F24.9°C 73.4°F23.0°C 89% Calm Calm 2.5 mph4.0 kmh 29.83 in1010.2 mb 0.04 in1.0 mm 0.00 in0.0 mm 0.04 in1.0 mm
08:33 AM 77.0°F25.0°C 73.6°F23.1°C 89% 1.3 mph ENE2.1 kmh ENE 2.5 mph4.0 kmh 29.83 in1010.2 mb 0.04 in1.0 mm 0.00 in0.0 mm 0.04 in1.0 mm
08:26 AM 77.2°F25.1°C 73.4°F23.0°C 88% 1.8 mph NNE2.9 kmh NNE 2.5 mph4.0 kmh 29.83 in1010.2 mb 0.04 in1.0 mm 0.00 in0.0 mm 0.04 in1.0 mm
08:22 AM 77.4°F25.2°C 73.2°F22.9°C 87% Calm Calm -- 29.83 in1010.2 mb 0.04 in1.0 mm 0.00 in0.0 mm 0.04 in1.0 mm
08:16 AM 77.5°F25.3°C 73.4°F23.0°C 87% Calm Calm 1.6 mph2.6 kmh 29.83 in1010.2 mb 0.04 in1.0 mm 0.24 in6.1 mm 0.02 in0.5 mm
08:11 AM 77.7°F25.4°C 73.2°F22.9°C 86% Calm Calm 1.6 mph2.6 kmh 29.83 in1010.2 mb 0.02 in0.5 mm 0.00 in0.0 mm 0.02 in0.5 mm
08:05 AM 78.4°F25.8°C 73.8°F23.2°C 86% 1.6 mph NE2.6 kmh NE 2.9 mph4.7 kmh 29.83 in1010.2 mb 0.02 in0.5 mm 0.00 in0.0 mm 0.02 in0.5 mm
08:01 AM 78.6°F25.9°C 73.8°F23.2°C 85% Calm Calm 2.9 mph4.7 kmh 29.83 in1010.2 mb 0.02 in0.5 mm 0.02 in0.5 mm 0.02 in0.5 mm
07:54 AM 79.2°F26.2°C 73.9°F23.3°C 84% Calm Calm -- 29.83 in1010.2 mb 0.00 in0.0 mm 0.00 in0.0 mm 0.00 in0.0 mm
07:50 AM 79.3°F26.3°C 74.1°F23.4°C 84% Calm Calm 1.1 mph1.8 kmh 29.83 in1010.2 mb 0.00 in0.0 mm 0.00 in0.0 mm 0.00 in0.0 mm
07:44 AM 79.3°F26.3°C 73.7°F23.2°C 83% 1.1 mph NNE1.8 kmh NNE 1.1 mph1.8 kmh 29.82 in1009.8 mb 0.00 in0.0 mm 0.00 in0.0 mm 0.00 in0.0 mm
07:39 AM 79.5°F26.4°C 73.9°F23.3°C 83% Calm Calm -- 29.82 in1009.8 mb 0.00 in0.0 mm 0.00 in0.0 mm 0.00 in0.0 mm
07:33 AM 79.5°F26.4°C 73.6°F23.1°C 82% Calm Calm -- 29.81 in1009.5 mb 0.00 in0.0 mm 0.00 in0.0 mm 0.00 in0.0 mm
07:29 AM 79.5°F26.4°C 73.2°F22.9°C 81% Calm Calm -- 29.82 in1009.8 mb 0.00 in0.0 mm 0.00 in0.0 mm 0.00 in0.0 mm
07:22 AM 79.5°F26.4°C 73.2°F22.9°C 81% Calm Calm -- 29.81 in1009.5 mb 0.00 in0.0 mm 0.00 in0.0 mm 0.00 in0.0 mm
07:18 AM 79.5°F26.4°C 72.9°F22.7°C 80% Calm Calm -- 29.81 in1009.5 mb 0.00 in0.0 mm 0.00 in0.0 mm 0.00 in0.0 mm
07:14 AM 79.3°F26.3°C 72.3°F22.4°C 79% Calm Calm -- 29.81 in1009.5 mb 0.00 in0.0 mm 0.00 in0.0 mm 0.00 in0.0 mm
07:05 AM 79.3°F26.3°C 72.3°F22.4°C 79% Calm Calm -- 29.80 in1009.1 mb 0.00 in0.0 mm 0.00 in0.0 mm 0.00 in0.0 mm
07:01 AM 79.3°F26.3°C 72.7°F22.6°C 80% Calm Calm -- 29.80 in1009.1 mb 0.00 in0.0 mm 0.00 in0.0 mm 0.00 in0.0 mm
06:57 AM 79.3°F26.3°C 72.3°F22.4°C 79% Calm Calm -- 29.80 in1009.1 mb 0.00 in0.0 mm 0.00 in0.0 mm 0.00 in0.0 mm
06:50 AM 79.3°F26.3°C 72.3°F22.4°C 79% Calm Calm -- 29.80 in1009.1 mb 0.00 in0.0 mm 0.00 in0.0 mm 0.00 in0.0 mm
06:44 AM 79.3°F26.3°C 72.3°F22.4°C 79% Calm Calm -- 29.80 in1009.1 mb 0.00 in0.0 mm 0.00 in0.0 mm 0.00 in0.0 mm
06:39 AM 79.3°F26.3°C 72.3°F22.4°C 79% Calm Calm -- 29.80 in1009.1 mb 0.00 in0.0 mm 0.00 in0.0 mm 0.00 in0.0 mm
06:33 AM 79.5°F26.4°C 72.9°F22.7°C 80% Calm Calm -- 29.80 in1009.1 mb 0.00 in0.0 mm 0.00 in0.0 mm 0.00 in0.0 mm
06:29 AM 79.5°F26.4°C 72.9°F22.7°C 80% Calm Calm -- 29.80 in1009.1 mb 0.00 in0.0 mm 0.00 in0.0 mm 0.00 in0.0 mm
06:24 AM 79.5°F26.4°C 72.5°F22.5°C 79% Calm Calm -- 29.80 in1009.1 mb 0.00 in0.0 mm 0.00 in0.0 mm 0.00 in0.0 mm
06:18 AM 79.5°F26.4°C 72.5°F22.5°C 79% Calm Calm -- 29.80 in1009.1 mb 0.00 in0.0 mm 0.00 in0.0 mm 0.00 in0.0 mm
06:14 AM 79.5°F26.4°C 72.5°F22.5°C 79% Calm Calm -- 29.80 in1009.1 mb 0.00 in0.0 mm 0.00 in0.0 mm 0.00 in0.0 mm
06:09 AM 79.5°F26.4°C 72.5°F22.5°C 79% Calm Calm -- 29.80 in1009.1 mb 0.00 in0.0 mm 0.00 in0.0 mm 0.00 in0.0 mm
06:03 AM 79.3°F26.3°C 72.3°F22.4°C 79% Calm Calm -- 29.79 in1008.8 mb 0.00 in0.0 mm 0.00 in0.0 mm 0.00 in0.0 mm
05:59 AM 79.5°F26.4°C 72.5°F22.5°C 79% Calm Calm -- 29.79 in1008.8 mb 0.00 in0.0 mm 0.00 in0.0 mm 0.00 in0.0 mm
05:54 AM 79.5°F26.4°C 72.5°F22.5°C 79% Calm Calm -- 29.79 in1008.8 mb 0.00 in0.0 mm 0.00 in0.0 mm 0.00 in0.0 mm
05:48 AM 79.5°F26.4°C 72.1°F22.3°C 78% Calm Calm -- 29.80 in1009.1 mb 0.00 in0.0 mm 0.00 in0.0 mm 0.00 in0.0 mm
05:44 AM 79.5°F26.4°C 72.1°F22.3°C 78% Calm Calm -- 29.80 in1009.1 mb 0.00 in0.0 mm 0.00 in0.0 mm 0.00 in0.0 mm
05:39 AM 79.5°F26.4°C 72.1°F22.3°C 78% Calm Calm -- 29.80 in1009.1 mb 0.00 in0.0 mm 0.00 in0.0 mm 0.00 in0.0 mm
05:33 AM 79.5°F26.4°C 72.1°F22.3°C 78% Calm Calm -- 29.79 in1008.8 mb 0.00 in0.0 mm 0.00 in0.0 mm 0.00 in0.0 mm
05:29 AM 79.5°F26.4°C 72.1°F22.3°C 78% Calm Calm -- 29.79 in1008.8 mb 0.00 in0.0 mm 0.00 in0.0 mm 0.00 in0.0 mm
05:22 AM 79.5°F26.4°C 72.1°F22.3°C 78% Calm Calm -- 29.79 in1008.8 mb 0.00 in0.0 mm 0.00 in0.0 mm 0.00 in0.0 mm
05:18 AM 79.5°F26.4°C 72.2°F22.3°C 77% Calm Calm -- 29.79 in1008.8 mb 0.00 in0.0 mm 0.00 in0.0 mm 0.00 in0.0 mm
05:14 AM 79.7°F26.5°C 72.2°F22.3°C 78% Calm Calm -- 29.78 in1008.5 mb 0.00 in0.0 mm 0.00 in0.0 mm 0.00 in0.0 mm
05:07 AM 79.7°F26.5°C 72.2°F22.3°C 78% Calm Calm -- 29.78 in1008.5 mb 0.00 in0.0 mm 0.00 in0.0 mm 0.00 in0.0 mm
05:03 AM 79.7°F26.5°C 72.2°F22.3°C 78% Calm Calm -- 29.78 in1008.5 mb 0.00 in0.0 mm 0.00 in0.0 mm 0.00 in0.0 mm
04:57 AM 79.7°F26.5°C 72.2°F22.3°C 78% Calm Calm -- 29.78 in1008.5 mb 0.00 in0.0 mm 0.00 in0.0 mm 0.00 in0.0 mm
04:52 AM 79.7°F26.5°C 72.2°F22.3°C 78% Calm Calm -- 29.78 in1008.5 mb 0.00 in0.0 mm 0.00 in0.0 mm 0.00 in0.0 mm
04:48 AM 79.9°F26.6°C 72.0°F22.2°C 77% Calm Calm -- 29.78 in1008.5 mb 0.00 in0.0 mm 0.00 in0.0 mm 0.00 in0.0 mm
04:42 AM 79.9°F26.6°C 72.0°F22.2°C 77% Calm Calm -- 29.78 in1008.5 mb 0.00 in0.0 mm 0.00 in0.0 mm 0.00 in0.0 mm
04:37 AM 79.9°F26.6°C 71.6°F22.0°C 76% Calm Calm -- 29.78 in1008.5 mb 0.00 in0.0 mm 0.00 in0.0 mm 0.00 in0.0 mm
04:31 AM 79.9°F26.6°C 71.6°F22.0°C 76% Calm Calm -- 29.78 in1008.5 mb 0.00 in0.0 mm 0.00 in0.0 mm 0.00 in0.0 mm
04:27 AM 79.9°F26.6°C 71.6°F22.0°C 76% Calm Calm -- 29.78 in1008.5 mb 0.00 in0.0 mm 0.00 in0.0 mm 0.00 in0.0 mm
04:22 AM 79.9°F26.6°C 71.6°F22.0°C 76% Calm Calm -- 29.78 in1008.5 mb 0.00 in0.0 mm 0.00 in0.0 mm 0.00 in0.0 mm
04:16 AM 80.1°F26.7°C 71.8°F22.1°C 76% Calm Calm -- 29.79 in1008.8 mb 0.00 in0.0 mm 0.00 in0.0 mm 0.00 in0.0 mm
04:12 AM 80.1°F26.7°C 71.8°F22.1°C 76% Calm Calm -- 29.78 in1008.5 mb 0.00 in0.0 mm 0.00 in0.0 mm 0.00 in0.0 mm
04:07 AM 80.2°F26.8°C 72.0°F22.2°C 76% Calm Calm -- 29.78 in1008.5 mb 0.00 in0.0 mm 0.00 in0.0 mm 0.00 in0.0 mm
04:02 AM 80.2°F26.8°C 72.0°F22.2°C 76% Calm Calm -- 29.77 in1008.1 mb 0.00 in0.0 mm 0.00 in0.0 mm 0.00 in0.0 mm
03:55 AM 80.2°F26.8°C 72.0°F22.2°C 76% Calm Calm -- 29.77 in1008.1 mb 0.00 in0.0 mm 0.00 in0.0 mm 0.00 in0.0 mm
03:51 AM 80.2°F26.8°C 72.0°F22.2°C 76% Calm Calm -- 29.78 in1008.5 mb 0.00 in0.0 mm 0.00 in0.0 mm 0.00 in0.0 mm
03:42 AM 80.2°F26.8°C 71.6°F22.0°C 75% Calm Calm -- 29.78 in1008.5 mb 0.00 in0.0 mm 0.00 in0.0 mm 0.00 in0.0 mm
03:38 AM 80.4°F26.9°C 71.8°F22.1°C 75% Calm Calm -- 29.78 in1008.5 mb 0.00 in0.0 mm 0.00 in0.0 mm 0.00 in0.0 mm
03:34 AM 80.4°F26.9°C 71.8°F22.1°C 75% Calm Calm -- 29.78 in1008.5 mb 0.00 in0.0 mm 0.00 in0.0 mm 0.00 in0.0 mm
03:27 AM 80.4°F26.9°C 71.8°F22.1°C 75% Calm Calm -- 29.78 in1008.5 mb 0.00 in0.0 mm 0.00 in0.0 mm 0.00 in0.0 mm
03:21 AM 80.4°F26.9°C 71.8°F22.1°C 75% Calm Calm -- 29.78 in1008.5 mb 0.00 in0.0 mm 0.00 in0.0 mm 0.00 in0.0 mm
03:17 AM 80.4°F26.9°C 71.6°F22.0°C 75% Calm Calm -- 29.78 in1008.5 mb 0.00 in0.0 mm 0.00 in0.0 mm 0.00 in0.0 mm
03:12 AM 80.6°F27.0°C 71.6°F22.0°C 74% Calm Calm -- 29.78 in1008.5 mb 0.00 in0.0 mm 0.00 in0.0 mm 0.00 in0.0 mm
03:06 AM 80.8°F27.1°C 71.3°F21.8°C 73% Calm Calm -- 29.78 in1008.5 mb 0.00 in0.0 mm 0.00 in0.0 mm 0.00 in0.0 mm
03:02 AM 80.8°F27.1°C 71.3°F21.8°C 73% Calm Calm -- 29.78 in1008.5 mb 0.00 in0.0 mm 0.00 in0.0 mm 0.00 in0.0 mm
02:55 AM 80.8°F27.1°C 71.3°F21.8°C 73% Calm Calm -- 29.78 in1008.5 mb 0.00 in0.0 mm 0.00 in0.0 mm 0.00 in0.0 mm
02:51 AM 80.8°F27.1°C 71.3°F21.8°C 73% Calm Calm -- 29.79 in1008.8 mb 0.00 in0.0 mm 0.00 in0.0 mm 0.00 in0.0 mm
02:47 AM 80.8°F27.1°C 71.3°F21.8°C 73% Calm Calm -- 29.79 in1008.8 mb 0.00 in0.0 mm 0.00 in0.0 mm 0.00 in0.0 mm
02:40 AM 81.0°F27.2°C 71.5°F21.9°C 73% Calm Calm -- 29.79 in1008.8 mb 0.00 in0.0 mm 0.00 in0.0 mm 0.00 in0.0 mm
02:36 AM 81.0°F27.2°C 71.5°F21.9°C 73% Calm Calm -- 29.79 in1008.8 mb 0.00 in0.0 mm 0.00 in0.0 mm 0.00 in0.0 mm
02:29 AM 81.1°F27.3°C 71.3°F21.8°C 72% Calm Calm -- 29.79 in1008.8 mb 0.00 in0.0 mm 0.00 in0.0 mm 0.00 in0.0 mm
02:25 AM 81.1°F27.3°C 71.3°F21.8°C 72% Calm Calm -- 29.79 in1008.8 mb 0.00 in0.0 mm 0.00 in0.0 mm 0.00 in0.0 mm
02:19 AM 81.1°F27.3°C 71.3°F21.8°C 72% Calm Calm -- 29.79 in1008.8 mb 0.00 in0.0 mm 0.00 in0.0 mm 0.00 in0.0 mm
02:14 AM 81.1°F27.3°C 71.3°F21.8°C 72% Calm Calm -- 29.79 in1008.8 mb 0.00 in0.0 mm 0.00 in0.0 mm 0.00 in0.0 mm
02:08 AM 81.3°F27.4°C 71.4°F21.9°C 72% Calm Calm -- 29.80 in1009.1 mb 0.00 in0.0 mm 0.00 in0.0 mm 0.00 in0.0 mm
02:04 AM 81.3°F27.4°C 71.4°F21.9°C 72% Calm Calm -- 29.80 in1009.1 mb 0.00 in0.0 mm 0.00 in0.0 mm 0.00 in0.0 mm
01:57 AM 81.3°F27.4°C 71.0°F21.7°C 71% Calm Calm -- 29.80 in1009.1 mb 0.00 in0.0 mm 0.00 in0.0 mm 0.00 in0.0 mm
01:53 AM 81.5°F27.5°C 71.2°F21.8°C 71% Calm Calm -- 29.80 in1009.1 mb 0.00 in0.0 mm 0.00 in0.0 mm 0.00 in0.0 mm
01:47 AM 81.5°F27.5°C 71.2°F21.8°C 71% Calm Calm -- 29.80 in1009.1 mb 0.00 in0.0 mm 0.00 in0.0 mm 0.00 in0.0 mm
01:42 AM 81.7°F27.6°C 71.3°F21.8°C 71% Calm Calm -- 29.80 in1009.1 mb 0.00 in0.0 mm 0.00 in0.0 mm 0.00 in0.0 mm
01:38 AM 81.7°F27.6°C 71.3°F21.8°C 71% Calm Calm -- 29.80 in1009.1 mb 0.00 in0.0 mm 0.00 in0.0 mm 0.00 in0.0 mm
01:32 AM 81.7°F27.6°C 71.3°F21.8°C 71% Calm Calm -- 29.81 in1009.5 mb 0.00 in0.0 mm 0.00 in0.0 mm 0.00 in0.0 mm
01:27 AM 81.7°F27.6°C 71.3°F21.8°C 71% Calm Calm -- 29.80 in1009.1 mb 0.00 in0.0 mm 0.00 in0.0 mm 0.00 in0.0 mm
01:21 AM 81.7°F27.6°C 71.0°F21.7°C 70% Calm Calm -- 29.80 in1009.1 mb 0.00 in0.0 mm 0.00 in0.0 mm 0.00 in0.0 mm
01:15 AM 81.9°F27.7°C 71.1°F21.7°C 70% Calm Calm -- 29.81 in1009.5 mb 0.00 in0.0 mm 0.00 in0.0 mm 0.00 in0.0 mm
01:10 AM 82.0°F27.8°C 71.3°F21.8°C 70% Calm Calm -- 29.81 in1009.5 mb 0.00 in0.0 mm 0.00 in0.0 mm 0.00 in0.0 mm
01:04 AM 82.0°F27.8°C 71.3°F21.8°C 70% Calm Calm -- 29.81 in1009.5 mb 0.00 in0.0 mm 0.00 in0.0 mm 0.00 in0.0 mm
12:57 AM 82.2°F27.9°C 71.4°F21.9°C 70% Calm Calm -- 29.81 in1009.5 mb 0.00 in0.0 mm 0.00 in0.0 mm 0.00 in0.0 mm
12:53 AM 82.2°F27.9°C 71.4°F21.9°C 70% Calm Calm -- 29.81 in1009.5 mb 0.00 in0.0 mm 0.00 in0.0 mm 0.00 in0.0 mm
12:49 AM 82.4°F28.0°C 71.6°F22.0°C 70% Calm Calm -- 29.82 in1009.8 mb 0.00 in0.0 mm 0.00 in0.0 mm 0.00 in0.0 mm
12:42 AM 82.6°F28.1°C 71.8°F22.1°C 70% Calm Calm -- 29.81 in1009.5 mb 0.00 in0.0 mm 0.00 in0.0 mm 0.00 in0.0 mm
12:38 AM 82.6°F28.1°C 71.8°F22.1°C 70% Calm Calm -- 29.82 in1009.8 mb 0.00 in0.0 mm 0.00 in0.0 mm 0.00 in0.0 mm
12:32 AM 82.6°F28.1°C 71.8°F22.1°C 70% Calm Calm -- 29.82 in1009.8 mb 0.00 in0.0 mm 0.00 in0.0 mm 0.00 in0.0 mm
12:27 AM 82.8°F28.2°C 71.5°F21.9°C 69% Calm Calm -- 29.82 in1009.8 mb 0.00 in0.0 mm 0.00 in0.0 mm 0.00 in0.0 mm
12:23 AM 82.8°F28.2°C 71.5°F21.9°C 69% Calm Calm -- 29.82 in1009.8 mb 0.00 in0.0 mm 0.00 in0.0 mm 0.00 in0.0 mm
12:17 AM 82.9°F28.3°C 71.7°F22.1°C 69% Calm Calm -- 29.82 in1009.8 mb 0.00 in0.0 mm 0.00 in0.0 mm 0.00 in0.0 mm
12:12 AM 82.9°F28.3°C 71.7°F22.1°C 69% Calm Calm -- 29.82 in1009.8 mb 0.00 in0.0 mm 0.00 in0.0 mm 0.00 in0.0 mm
12:08 AM 83.1°F28.4°C 71.4°F21.9°C 68% Calm Calm -- 29.82 in1009.8 mb 0.00 in0.0 mm 0.00 in0.0 mm 0.00 in0.0 mm
12:02 AM 83.1°F28.4°C 71.4°F21.9°C 68% Calm Calm -- 29.81 in1009.5 mb 0.00 in0.0 mm 0.00 in0.0 mm 0.00 in0.0 mm